TimeEDT,TemperatureF,Dew PointF,Humidity,Sea Level PressureIn,VisibilityMPH,Wind Direction,Wind SpeedMPH,Gust SpeedMPH,PrecipitationIn,Events,Conditions,WindDirDegrees,DateUTC
12:53 AM,72.0,69.1,91,29.93,10.0,Calm,Calm,-,N/A,,Clear,0,2013-09-04 04:53:00
1:53 AM,70.0,68.0,93,29.93,10.0,Calm,Calm,-,N/A,,Clear,0,2013-09-04 05:53:00
2:29 AM,68.0,66.2,94,29.95,4.0,NNE,4.6,-,N/A,,Partly Cloudy,30,2013-09-04 06:29:00
2:53 AM,69.1,66.9,93,29.94,8.0,Calm,Calm,-,N/A,,Clear,0,2013-09-04 06:53:00
3:53 AM,69.1,66.9,93,29.94,10.0,Calm,Calm,-,N/A,,Clear,0,2013-09-04 07:53:00
4:53 AM,69.1,66.9,93,29.95,9.0,Calm,Calm,-,0.01,,Clear,0,2013-09-04 08:53:00
5:53 AM,70.0,66.9,90,29.96,10.0,Calm,Calm,-,N/A,,Clear,0,2013-09-04 09:53:00
6:53 AM,70.0,68.0,93,29.98,9.0,NNW,4.6,-,N/A,,Clear,340,2013-09-04 10:53:00
7:53 AM,72.0,66.9,84,30.01,10.0,North,8.1,-,N/A,,Clear,360,2013-09-04 11:53:00
8:53 AM,73.9,68.0,82,30.01,10.0,NNE,10.4,-,N/A,,Clear,20,2013-09-04 12:53:00
9:13 AM,75.2,69.8,83,30.04,9.0,NNE,9.2,-,N/A,,Partly Cloudy,30,2013-09-04 13:13:00
9:53 AM,79.0,71.1,77,30.04,10.0,NNE,5.8,-,N/A,,Clear,20,2013-09-04 13:53:00
10:53 AM,81.0,72.0,74,30.05,10.0,Variable,3.5,-,N/A,,Partly Cloudy,0,2013-09-04 14:53:00
11:53 AM,84.9,72.0,65,30.04,10.0,NE,4.6,-,N/A,,Scattered Clouds,40,2013-09-04 15:53:00
12:53 PM,88.0,72.0,59,30.04,10.0,ENE,3.5,-,N/A,,Partly Cloudy,60,2013-09-04 16:53:00
1:53 PM,88.0,71.1,57,30.04,10.0,Calm,Calm,-,N/A,,Scattered Clouds,0,2013-09-04 17:53:00
2:53 PM,90.0,71.1,54,30.02,10.0,NNE,4.6,-,N/A,,Overcast,30,2013-09-04 18:53:00
3:53 PM,87.1,71.1,59,30.01,10.0,NNE,6.9,-,N/A,,Scattered Clouds,30,2013-09-04 19:53:00
4:53 PM,90.0,70.0,52,30.00,10.0,North,4.6,-,N/A,,Mostly Cloudy,10,2013-09-04 20:53:00
5:53 PM,86.0,70.0,59,29.99,10.0,NNE,8.1,-,N/A,,Clear,20,2013-09-04 21:53:00
6:53 PM,84.0,72.0,67,30.00,9.0,NE,3.5,-,N/A,,Clear,40,2013-09-04 22:53:00
7:42 PM,80.6,73.4,79,30.03,2.5,Calm,Calm,-,N/A,,Haze,0,2013-09-04 23:42:00
7:50 PM,80.6,73.4,79,30.03,6.0,Calm,Calm,-,N/A,,Haze,0,2013-09-04 23:50:00
7:53 PM,81.0,73.0,77,30.01,7.0,Calm,Calm,-,N/A,,Clear,0,2013-09-04 23:53:00
8:53 PM,78.1,73.0,84,30.03,7.0,North,3.5,-,N/A,,Clear,10,2013-09-05 00:53:00
9:53 PM,78.1,73.0,84,30.04,9.0,NNE,3.5,-,N/A,,Clear,30,2013-09-05 01:53:00
10:53 PM,75.9,72.0,87,30.05,10.0,SE,5.8,-,N/A,,Clear,130,2013-09-05 02:53:00
11:53 PM,77.0,73.0,88,30.06,8.0,Calm,Calm,-,N/A,,Mostly Cloudy,0,2013-09-05 03:53:00